sensor_id;sensor_type;location;lat;lon;timestamp;pressure;altitude;pressure_sealevel;temperature
45850;BMP180;10739;52.198;20.908;2022-07-01T00:01:37;100118.00;;;27.90
45850;BMP180;10739;52.198;20.908;2022-07-01T00:04:03;100111.00;;;27.60
45850;BMP180;10739;52.198;20.908;2022-07-01T00:06:29;100120.00;;;27.50
45850;BMP180;10739;52.198;20.908;2022-07-01T00:08:56;100117.00;;;27.50
45850;BMP180;10739;52.198;20.908;2022-07-01T00:11:21;100120.00;;;27.60
45850;BMP180;10739;52.198;20.908;2022-07-01T00:13:48;100113.00;;;27.60
45850;BMP180;10739;52.198;20.908;2022-07-01T00:16:13;100121.00;;;27.60
45850;BMP180;10739;52.198;20.908;2022-07-01T00:18:40;100117.00;;;27.70
45850;BMP180;10739;52.198;20.908;2022-07-01T00:21:06;100116.00;;;27.90
45850;BMP180;10739;52.198;20.908;2022-07-01T00:23:32;100123.00;;;27.90
45850;BMP180;10739;52.198;20.908;2022-07-01T00:25:58;100132.00;;;27.60
45850;BMP180;10739;52.198;20.908;2022-07-01T00:28:24;100125.00;;;27.60
45850;BMP180;10739;52.198;20.908;2022-07-01T00:30:52;100127.00;;;27.60
45850;BMP180;10739;52.198;20.908;2022-07-01T00:33:18;100136.00;;;27.50
45850;BMP180;10739;52.198;20.908;2022-07-01T00:35:44;100130.00;;;27.70
45850;BMP180;10739;52.198;20.908;2022-07-01T00:38:10;100127.00;;;27.80
45850;BMP180;10739;52.198;20.908;2022-07-01T00:40:36;100125.00;;;27.70
45850;BMP180;10739;52.198;20.908;2022-07-01T00:43:02;100124.00;;;27.80
45850;BMP180;10739;52.198;20.908;2022-07-01T00:45:29;100129.00;;;27.70
45850;BMP180;10739;52.198;20.908;2022-07-01T00:47:55;100120.00;;;27.70
45850;BMP180;10739;52.198;20.908;2022-07-01T00:50:23;100131.00;;;27.50
45850;BMP180;10739;52.198;20.908;2022-07-01T00:52:49;100134.00;;;27.60
45850;BMP180;10739;52.198;20.908;2022-07-01T00:55:16;100132.00;;;27.20
45850;BMP180;10739;52.198;20.908;2022-07-01T00:57:43;100136.00;;;27.20
45850;BMP180;10739;52.198;20.908;2022-07-01T01:00:14;100133.00;;;27.20
45850;BMP180;10739;52.198;20.908;2022-07-01T01:02:41;100138.00;;;27.20
45850;BMP180;10739;52.198;20.908;2022-07-01T01:05:08;100137.00;;;27.30
45850;BMP180;10739;52.198;20.908;2022-07-01T01:07:35;100137.00;;;27.10
45850;BMP180;10739;52.198;20.908;2022-07-01T01:10:02;100146.00;;;27.40
45850;BMP180;10739;52.198;20.908;2022-07-01T01:12:29;100151.00;;;27.40
45850;BMP180;10739;52.198;20.908;2022-07-01T01:14:56;100171.00;;;27.10
45850;BMP180;10739;52.198;20.908;2022-07-01T01:17:24;100179.00;;;26.80
45850;BMP180;10739;52.198;20.908;2022-07-01T01:19:51;100186.00;;;26.50
45850;BMP180;10739;52.198;20.908;2022-07-01T01:22:18;100177.00;;;26.80
45850;BMP180;10739;52.198;20.908;2022-07-01T01:24:46;100181.00;;;27.00
45850;BMP180;10739;52.198;20.908;2022-07-01T01:27:14;100191.00;;;27.00
45850;BMP180;10739;52.198;20.908;2022-07-01T01:29:42;100197.00;;;26.60
45850;BMP180;10739;52.198;20.908;2022-07-01T01:32:09;100198.00;;;26.80
45850;BMP180;10739;52.198;20.908;2022-07-01T01:34:37;100202.00;;;26.70
45850;BMP180;10739;52.198;20.908;2022-07-01T01:37:06;100208.00;;;26.80
45850;BMP180;10739;52.198;20.908;2022-07-01T01:39:32;100216.00;;;26.40
45850;BMP180;10739;52.198;20.908;2022-07-01T01:41:58;100231.00;;;26.50
45850;BMP180;10739;52.198;20.908;2022-07-01T01:44:24;100223.00;;;26.50
45850;BMP180;10739;52.198;20.908;2022-07-01T01:46:50;100221.00;;;26.60
45850;BMP180;10739;52.198;20.908;2022-07-01T01:49:17;100216.00;;;26.80
45850;BMP180;10739;52.198;20.908;2022-07-01T01:51:43;100206.00;;;26.90
45850;BMP180;10739;52.198;20.908;2022-07-01T01:54:09;100211.00;;;27.00
45850;BMP180;10739;52.198;20.908;2022-07-01T01:56:35;100221.00;;;26.70
45850;BMP180;10739;52.198;20.908;2022-07-01T01:59:02;100221.00;;;26.70
45850;BMP180;10739;52.198;20.908;2022-07-01T02:01:29;100226.00;;;26.60
45850;BMP180;10739;52.198;20.908;2022-07-01T02:03:56;100233.00;;;26.70
45850;BMP180;10739;52.198;20.908;2022-07-01T02:06:22;100224.00;;;26.70
45850;BMP180;10739;52.198;20.908;2022-07-01T02:08:48;100221.00;;;26.70
45850;BMP180;10739;52.198;20.908;2022-07-01T02:11:14;100218.00;;;26.80
45850;BMP180;10739;52.198;20.908;2022-07-01T02:13:40;100226.00;;;26.90
45850;BMP180;10739;52.198;20.908;2022-07-01T02:16:06;100229.00;;;26.50
45850;BMP180;10739;52.198;20.908;2022-07-01T02:18:32;100235.00;;;26.40
45850;BMP180;10739;52.198;20.908;2022-07-01T02:20:59;100235.00;;;26.50
45850;BMP180;10739;52.198;20.908;2022-07-01T02:23:25;100226.00;;;26.30
45850;BMP180;10739;52.198;20.908;2022-07-01T02:25:51;100224.00;;;26.60
45850;BMP180;10739;52.198;20.908;2022-07-01T02:28:17;100224.00;;;26.40
45850;BMP180;10739;52.198;20.908;2022-07-01T02:30:43;100231.00;;;26.50
45850;BMP180;10739;52.198;20.908;2022-07-01T02:33:10;100226.00;;;26.40
45850;BMP180;10739;52.198;20.908;2022-07-01T02:35:40;100233.00;;;26.50
45850;BMP180;10739;52.198;20.908;2022-07-01T02:38:08;100230.00;;;26.20
45850;BMP180;10739;52.198;20.908;2022-07-01T02:40:35;100232.00;;;26.30
45850;BMP180;10739;52.198;20.908;2022-07-01T02:43:06;100234.00;;;26.40
45850;BMP180;10739;52.198;20.908;2022-07-01T02:45:33;100228.00;;;26.60
45850;BMP180;10739;52.198;20.908;2022-07-01T02:47:59;100217.00;;;26.50
45850;BMP180;10739;52.198;20.908;2022-07-01T02:50:28;100231.00;;;26.60
45850;BMP180;10739;52.198;20.908;2022-07-01T02:52:54;100238.00;;;26.50
45850;BMP180;10739;52.198;20.908;2022-07-01T02:55:21;100236.00;;;26.30
45850;BMP180;10739;52.198;20.908;2022-07-01T02:57:47;100240.00;;;26.20
45850;BMP180;10739;52.198;20.908;2022-07-01T03:00:19;100234.00;;;26.40
45850;BMP180;10739;52.198;20.908;2022-07-01T03:02:46;100238.00;;;26.40
45850;BMP180;10739;52.198;20.908;2022-07-01T03:05:12;100232.00;;;26.50
45850;BMP180;10739;52.198;20.908;2022-07-01T03:07:39;100238.00;;;26.50
45850;BMP180;10739;52.198;20.908;2022-07-01T03:10:07;100244.00;;;26.70
45850;BMP180;10739;52.198;20.908;2022-07-01T03:12:34;100249.00;;;26.60
45850;BMP180;10739;52.198;20.908;2022-07-01T03:15:04;100249.00;;;26.30
45850;BMP180;10739;52.198;20.908;2022-07-01T03:17:33;100246.00;;;26.30
45850;BMP180;10739;52.198;20.908;2022-07-01T03:20:01;100242.00;;;26.30
45850;BMP180;10739;52.198;20.908;2022-07-01T03:22:31;100244.00;;;26.50
45850;BMP180;10739;52.198;20.908;2022-07-01T03:24:58;100242.00;;;26.50
45850;BMP180;10739;52.198;20.908;2022-07-01T03:27:25;100230.00;;;26.40
45850;BMP180;10739;52.198;20.908;2022-07-01T03:29:52;100228.00;;;26.40
45850;BMP180;10739;52.198;20.908;2022-07-01T03:32:18;100230.00;;;26.30
45850;BMP180;10739;52.198;20.908;2022-07-01T03:34:47;100237.00;;;26.60
45850;BMP180;10739;52.198;20.908;2022-07-01T03:37:15;100231.00;;;26.70
45850;BMP180;10739;52.198;20.908;2022-07-01T03:39:43;100230.00;;;26.70
45850;BMP180;10739;52.198;20.908;2022-07-01T03:42:10;100226.00;;;26.80
45850;BMP180;10739;52.198;20.908;2022-07-01T03:44:37;100222.00;;;26.90
45850;BMP180;10739;52.198;20.908;2022-07-01T03:47:04;100222.00;;;26.70
45850;BMP180;10739;52.198;20.908;2022-07-01T03:49:34;100214.00;;;26.90
45850;BMP180;10739;52.198;20.908;2022-07-01T03:52:02;100212.00;;;26.80
45850;BMP180;10739;52.198;20.908;2022-07-01T03:54:28;100207.00;;;26.80
45850;BMP180;10739;52.198;20.908;2022-07-01T03:57:09;100204.00;;;26.90
45850;BMP180;10739;52.198;20.908;2022-07-01T03:59:38;100214.00;;;26.90
45850;BMP180;10739;52.198;20.908;2022-07-01T04:02:05;100213.00;;;27.00
45850;BMP180;10739;52.198;20.908;2022-07-01T04:04:33;100208.00;;;27.10
45850;BMP180;10739;52.198;20.908;2022-07-01T04:07:02;100214.00;;;27.30
45850;BMP180;10739;52.198;20.908;2022-07-01T04:09:30;100216.00;;;27.40
45850;BMP180;10739;52.198;20.908;2022-07-01T04:11:57;100211.00;;;27.50
45850;BMP180;10739;52.198;20.908;2022-07-01T04:14:23;100209.00;;;27.60
45850;BMP180;10739;52.198;20.908;2022-07-01T04:16:50;100215.00;;;27.80
45850;BMP180;10739;52.198;20.908;2022-07-01T04:19:18;100213.00;;;27.80
45850;BMP180;10739;52.198;20.908;2022-07-01T04:21:44;100205.00;;;27.90
45850;BMP180;10739;52.198;20.908;2022-07-01T04:24:29;100200.00;;;28.00
45850;BMP180;10739;52.198;20.908;2022-07-01T04:26:58;100203.00;;;28.10
45850;BMP180;10739;52.198;20.908;2022-07-01T04:29:25;100203.00;;;28.10
45850;BMP180;10739;52.198;20.908;2022-07-01T04:31:52;100197.00;;;28.20
45850;BMP180;10739;52.198;20.908;2022-07-01T04:34:18;100197.00;;;28.30
45850;BMP180;10739;52.198;20.908;2022-07-01T04:36:45;100199.00;;;28.30
45850;BMP180;10739;52.198;20.908;2022-07-01T04:39:11;100188.00;;;28.10
45850;BMP180;10739;52.198;20.908;2022-07-01T04:41:36;100195.00;;;28.10
45850;BMP180;10739;52.198;20.908;2022-07-01T04:44:21;100196.00;;;28.30
45850;BMP180;10739;52.198;20.908;2022-07-01T04:46:47;100197.00;;;28.30
45850;BMP180;10739;52.198;20.908;2022-07-01T04:49:13;100199.00;;;28.50
45850;BMP180;10739;52.198;20.908;2022-07-01T04:51:39;100195.00;;;28.40
45850;BMP180;10739;52.198;20.908;2022-07-01T04:54:06;100184.00;;;28.20
45850;BMP180;10739;52.198;20.908;2022-07-01T04:56:34;100191.00;;;28.50
45850;BMP180;10739;52.198;20.908;2022-07-01T04:59:01;100186.00;;;28.60
45850;BMP180;10739;52.198;20.908;2022-07-01T05:01:28;100192.00;;;28.60
45850;BMP180;10739;52.198;20.908;2022-07-01T05:03:55;100183.00;;;28.80
45850;BMP180;10739;52.198;20.908;2022-07-01T05:06:22;100192.00;;;29.20
45850;BMP180;10739;52.198;20.908;2022-07-01T05:08:48;100192.00;;;29.00
45850;BMP180;10739;52.198;20.908;2022-07-01T05:11:14;100180.00;;;29.20
45850;BMP180;10739;52.198;20.908;2022-07-01T05:13:40;100188.00;;;29.00
45850;BMP180;10739;52.198;20.908;2022-07-01T05:16:07;100188.00;;;29.40
45850;BMP180;10739;52.198;20.908;2022-07-01T05:18:36;100185.00;;;29.30
45850;BMP180;10739;52.198;20.908;2022-07-01T05:21:20;100183.00;;;29.20
45850;BMP180;10739;52.198;20.908;2022-07-01T05:24:06;100180.00;;;29.10
45850;BMP180;10739;52.198;20.908;2022-07-01T05:26:33;100182.00;;;29.30
45850;BMP180;10739;52.198;20.908;2022-07-01T05:28:59;100178.00;;;29.30
45850;BMP180;10739;52.198;20.908;2022-07-01T05:31:25;100173.00;;;29.30
45850;BMP180;10739;52.198;20.908;2022-07-01T05:33:51;100180.00;;;29.60
45850;BMP180;10739;52.198;20.908;2022-07-01T05:36:17;100181.00;;;29.50
45850;BMP180;10739;52.198;20.908;2022-07-01T05:38:43;100180.00;;;29.80
45850;BMP180;10739;52.198;20.908;2022-07-01T05:41:09;100170.00;;;30.00
45850;BMP180;10739;52.198;20.908;2022-07-01T05:43:35;100171.00;;;30.20
45850;BMP180;10739;52.198;20.908;2022-07-01T05:46:02;100175.00;;;29.80
45850;BMP180;10739;52.198;20.908;2022-07-01T05:48:28;100164.00;;;30.00
45850;BMP180;10739;52.198;20.908;2022-07-01T05:50:54;100171.00;;;30.10
45850;BMP180;10739;52.198;20.908;2022-07-01T05:53:21;100171.00;;;30.30
45850;BMP180;10739;52.198;20.908;2022-07-01T05:55:48;100166.00;;;30.20
45850;BMP180;10739;52.198;20.908;2022-07-01T05:58:14;100175.00;;;30.10
45850;BMP180;10739;52.198;20.908;2022-07-01T06:00:41;100182.00;;;30.20
45850;BMP180;10739;52.198;20.908;2022-07-01T06:03:13;100176.00;;;30.30
45850;BMP180;10739;52.198;20.908;2022-07-01T06:05:41;100172.00;;;30.40
45850;BMP180;10739;52.198;20.908;2022-07-01T06:08:07;100174.00;;;30.60
45850;BMP180;10739;52.198;20.908;2022-07-01T06:10:34;100180.00;;;30.60
45850;BMP180;10739;52.198;20.908;2022-07-01T06:13:02;100175.00;;;30.40
45850;BMP180;10739;52.198;20.908;2022-07-01T06:15:28;100174.00;;;30.50
45850;BMP180;10739;52.198;20.908;2022-07-01T06:17:55;100177.00;;;30.30
45850;BMP180;10739;52.198;20.908;2022-07-01T06:20:22;100173.00;;;30.30
45850;BMP180;10739;52.198;20.908;2022-07-01T06:22:48;100167.00;;;30.60
45850;BMP180;10739;52.198;20.908;2022-07-01T06:25:14;100169.00;;;31.00
45850;BMP180;10739;52.198;20.908;2022-07-01T06:27:44;100166.00;;;30.80
45850;BMP180;10739;52.198;20.908;2022-07-01T06:30:11;100168.00;;;30.90
45850;BMP180;10739;52.198;20.908;2022-07-01T06:32:38;100170.00;;;31.10
45850;BMP180;10739;52.198;20.908;2022-07-01T06:35:05;100169.00;;;31.10
45850;BMP180;10739;52.198;20.908;2022-07-01T06:37:31;100175.00;;;31.40
45850;BMP180;10739;52.198;20.908;2022-07-01T06:40:01;100166.00;;;31.30
45850;BMP180;10739;52.198;20.908;2022-07-01T06:42:27;100164.00;;;31.40
45850;BMP180;10739;52.198;20.908;2022-07-01T06:44:53;100162.00;;;31.40
45850;BMP180;10739;52.198;20.908;2022-07-01T06:47:19;100166.00;;;31.60
45850;BMP180;10739;52.198;20.908;2022-07-01T06:49:45;100170.00;;;31.70
45850;BMP180;10739;52.198;20.908;2022-07-01T06:52:12;100176.00;;;31.60
45850;BMP180;10739;52.198;20.908;2022-07-01T06:54:38;100172.00;;;31.70
45850;BMP180;10739;52.198;20.908;2022-07-01T06:57:06;100173.00;;;31.70
45850;BMP180;10739;52.198;20.908;2022-07-01T06:59:32;100173.00;;;32.10
45850;BMP180;10739;52.198;20.908;2022-07-01T07:01:58;100164.00;;;32.30
45850;BMP180;10739;52.198;20.908;2022-07-01T07:04:24;100162.00;;;32.10
45850;BMP180;10739;52.198;20.908;2022-07-01T07:06:50;100165.00;;;32.00
45850;BMP180;10739;52.198;20.908;2022-07-01T07:09:17;100163.00;;;32.10
45850;BMP180;10739;52.198;20.908;2022-07-01T07:11:42;100162.00;;;31.90
45850;BMP180;10739;52.198;20.908;2022-07-01T07:14:08;100166.00;;;32.50
45850;BMP180;10739;52.198;20.908;2022-07-01T07:16:34;100168.00;;;32.50
45850;BMP180;10739;52.198;20.908;2022-07-01T07:19:00;100168.00;;;32.70
45850;BMP180;10739;52.198;20.908;2022-07-01T07:21:26;100168.00;;;32.70
45850;BMP180;10739;52.198;20.908;2022-07-01T07:23:52;100172.00;;;32.80
45850;BMP180;10739;52.198;20.908;2022-07-01T07:26:18;100164.00;;;32.90
45850;BMP180;10739;52.198;20.908;2022-07-01T07:28:45;100165.00;;;32.90
45850;BMP180;10739;52.198;20.908;2022-07-01T07:31:10;100166.00;;;33.00
45850;BMP180;10739;52.198;20.908;2022-07-01T07:33:36;100159.00;;;33.30
45850;BMP180;10739;52.198;20.908;2022-07-01T07:36:03;100165.00;;;32.90
45850;BMP180;10739;52.198;20.908;2022-07-01T07:38:29;100163.00;;;33.30
45850;BMP180;10739;52.198;20.908;2022-07-01T07:40:55;100156.00;;;33.50
45850;BMP180;10739;52.198;20.908;2022-07-01T07:43:21;100160.00;;;33.80
45850;BMP180;10739;52.198;20.908;2022-07-01T07:45:47;100163.00;;;33.90
45850;BMP180;10739;52.198;20.908;2022-07-01T07:48:13;100154.00;;;34.00
45850;BMP180;10739;52.198;20.908;2022-07-01T07:50:39;100154.00;;;33.70
45850;BMP180;10739;52.198;20.908;2022-07-01T07:53:05;100151.00;;;34.10
45850;BMP180;10739;52.198;20.908;2022-07-01T07:55:32;100158.00;;;34.00
45850;BMP180;10739;52.198;20.908;2022-07-01T07:57:58;100151.00;;;34.10
45850;BMP180;10739;52.198;20.908;2022-07-01T08:00:24;100158.00;;;34.50
45850;BMP180;10739;52.198;20.908;2022-07-01T08:02:50;100151.00;;;34.60
45850;BMP180;10739;52.198;20.908;2022-07-01T08:05:16;100157.00;;;34.80
45850;BMP180;10739;52.198;20.908;2022-07-01T08:07:43;100149.00;;;34.50
45850;BMP180;10739;52.198;20.908;2022-07-01T08:10:12;100151.00;;;34.60
45850;BMP180;10739;52.198;20.908;2022-07-01T08:12:38;100149.00;;;35.00
45850;BMP180;10739;52.198;20.908;2022-07-01T08:15:05;100151.00;;;35.10
45850;BMP180;10739;52.198;20.908;2022-07-01T08:17:32;100159.00;;;35.70
45850;BMP180;10739;52.198;20.908;2022-07-01T08:19:58;100153.00;;;35.50
45850;BMP180;10739;52.198;20.908;2022-07-01T08:22:25;100161.00;;;35.60
45850;BMP180;10739;52.198;20.908;2022-07-01T08:24:52;100158.00;;;35.50
45850;BMP180;10739;52.198;20.908;2022-07-01T08:27:17;100159.00;;;35.40
45850;BMP180;10739;52.198;20.908;2022-07-01T08:29:44;100165.00;;;35.70
45850;BMP180;10739;52.198;20.908;2022-07-01T08:32:10;100168.00;;;35.80
45850;BMP180;10739;52.198;20.908;2022-07-01T08:34:36;100171.00;;;36.10
45850;BMP180;10739;52.198;20.908;2022-07-01T08:37:04;100164.00;;;36.00
45850;BMP180;10739;52.198;20.908;2022-07-01T08:39:31;100161.00;;;36.10
45850;BMP180;10739;52.198;20.908;2022-07-01T08:41:57;100162.00;;;36.10
45850;BMP180;10739;52.198;20.908;2022-07-01T08:44:24;100161.00;;;36.20
45850;BMP180;10739;52.198;20.908;2022-07-01T08:46:50;100158.00;;;36.50
45850;BMP180;10739;52.198;20.908;2022-07-01T08:49:17;100163.00;;;36.50
45850;BMP180;10739;52.198;20.908;2022-07-01T08:51:43;100151.00;;;37.00
45850;BMP180;10739;52.198;20.908;2022-07-01T08:54:09;100153.00;;;36.60
45850;BMP180;10739;52.198;20.908;2022-07-01T08:56:35;100148.00;;;36.60
45850;BMP180;10739;52.198;20.908;2022-07-01T08:59:13;100151.00;;;36.70
45850;BMP180;10739;52.198;20.908;2022-07-01T09:01:54;100149.00;;;37.20
45850;BMP180;10739;52.198;20.908;2022-07-01T09:04:20;100156.00;;;37.10
45850;BMP180;10739;52.198;20.908;2022-07-01T09:06:48;100147.00;;;37.40
45850;BMP180;10739;52.198;20.908;2022-07-01T09:09:21;100147.00;;;37.30
45850;BMP180;10739;52.198;20.908;2022-07-01T09:11:51;100144.00;;;37.00
45850;BMP180;10739;52.198;20.908;2022-07-01T09:14:31;100147.00;;;37.50
45850;BMP180;10739;52.198;20.908;2022-07-01T09:17:03;100139.00;;;38.30
45850;BMP180;10739;52.198;20.908;2022-07-01T09:19:34;100148.00;;;38.20
45850;BMP180;10739;52.198;20.908;2022-07-01T09:22:02;100146.00;;;38.00
45850;BMP180;10739;52.198;20.908;2022-07-01T09:24:42;100145.00;;;38.20
45850;BMP180;10739;52.198;20.908;2022-07-01T09:27:14;100140.00;;;38.00
45850;BMP180;10739;52.198;20.908;2022-07-01T09:29:46;100140.00;;;38.00
45850;BMP180;10739;52.198;20.908;2022-07-01T09:32:19;100137.00;;;38.10
45850;BMP180;10739;52.198;20.908;2022-07-01T09:34:51;100141.00;;;38.00
45850;BMP180;10739;52.198;20.908;2022-07-01T09:37:20;100134.00;;;38.30
45850;BMP180;10739;52.198;20.908;2022-07-01T09:39:55;100133.00;;;38.00
45850;BMP180;10739;52.198;20.908;2022-07-01T09:42:24;100132.00;;;38.60
45850;BMP180;10739;52.198;20.908;2022-07-01T09:45:00;100134.00;;;38.50
45850;BMP180;10739;52.198;20.908;2022-07-01T09:47:35;100126.00;;;38.40
45850;BMP180;10739;52.198;20.908;2022-07-01T09:50:04;100133.00;;;38.70
45850;BMP180;10739;52.198;20.908;2022-07-01T09:52:31;100126.00;;;39.00
45850;BMP180;10739;52.198;20.908;2022-07-01T09:54:57;100132.00;;;39.10
45850;BMP180;10739;52.198;20.908;2022-07-01T09:57:23;100135.00;;;38.60
45850;BMP180;10739;52.198;20.908;2022-07-01T09:59:50;100144.00;;;38.60
45850;BMP180;10739;52.198;20.908;2022-07-01T10:02:21;100139.00;;;38.90
45850;BMP180;10739;52.198;20.908;2022-07-01T10:05:10;100137.00;;;39.20
45850;BMP180;10739;52.198;20.908;2022-07-01T10:10:51;100148.00;;;39.90
45850;BMP180;10739;52.198;20.908;2022-07-01T10:13:25;100133.00;;;39.80
45850;BMP180;10739;52.198;20.908;2022-07-01T10:15:55;100140.00;;;39.40
45850;BMP180;10739;52.198;20.908;2022-07-01T10:18:27;100139.00;;;39.60
45850;BMP180;10739;52.198;20.908;2022-07-01T10:20:55;100143.00;;;40.20
45850;BMP180;10739;52.198;20.908;2022-07-01T10:23:28;100132.00;;;40.30
45850;BMP180;10739;52.198;20.908;2022-07-01T10:26:02;100145.00;;;40.60
45850;BMP180;10739;52.198;20.908;2022-07-01T10:28:29;100137.00;;;41.00
45850;BMP180;10739;52.198;20.908;2022-07-01T10:31:17;100132.00;;;40.70
45850;BMP180;10739;52.198;20.908;2022-07-01T10:43:59;100123.00;;;40.30
45850;BMP180;10739;52.198;20.908;2022-07-01T10:52:14;100122.00;;;41.20
45850;BMP180;10739;52.198;20.908;2022-07-01T11:02:32;100114.00;;;42.00
45850;BMP180;10739;52.198;20.908;2022-07-01T11:05:02;100104.00;;;42.40
45850;BMP180;10739;52.198;20.908;2022-07-01T11:07:34;100114.00;;;42.80
45850;BMP180;10739;52.198;20.908;2022-07-01T11:10:04;100101.00;;;42.90
45850;BMP180;10739;52.198;20.908;2022-07-01T11:12:32;100105.00;;;42.80
45850;BMP180;10739;52.198;20.908;2022-07-01T11:15:00;100105.00;;;42.80
45850;BMP180;10739;52.198;20.908;2022-07-01T11:17:28;100102.00;;;43.20
45850;BMP180;10739;52.198;20.908;2022-07-01T11:20:00;100090.00;;;42.30
45850;BMP180;10739;52.198;20.908;2022-07-01T11:22:34;100083.00;;;42.00
45850;BMP180;10739;52.198;20.908;2022-07-01T11:25:07;100088.00;;;42.20
45850;BMP180;10739;52.198;20.908;2022-07-01T11:27:34;100087.00;;;42.40
45850;BMP180;10739;52.198;20.908;2022-07-01T11:30:08;100074.00;;;42.80
45850;BMP180;10739;52.198;20.908;2022-07-01T11:32:37;100082.00;;;43.00
45850;BMP180;10739;52.198;20.908;2022-07-01T11:35:06;100074.00;;;43.60
45850;BMP180;10739;52.198;20.908;2022-07-01T11:37:51;100077.00;;;44.40
45850;BMP180;10739;52.198;20.908;2022-07-01T11:40:36;100066.00;;;44.50
45850;BMP180;10739;52.198;20.908;2022-07-01T11:43:02;100069.00;;;43.80
45850;BMP180;10739;52.198;20.908;2022-07-01T11:45:43;100059.00;;;44.10
45850;BMP180;10739;52.198;20.908;2022-07-01T11:48:09;100059.00;;;43.40
45850;BMP180;10739;52.198;20.908;2022-07-01T11:50:35;100066.00;;;43.40
45850;BMP180;10739;52.198;20.908;2022-07-01T11:53:02;100060.00;;;44.40
45850;BMP180;10739;52.198;20.908;2022-07-01T11:55:29;100062.00;;;42.70
45850;BMP180;10739;52.198;20.908;2022-07-01T11:57:54;100054.00;;;42.70
45850;BMP180;10739;52.198;20.908;2022-07-01T12:00:22;100047.00;;;44.30
45850;BMP180;10739;52.198;20.908;2022-07-01T12:02:52;100055.00;;;44.10
45850;BMP180;10739;52.198;20.908;2022-07-01T12:05:19;100057.00;;;43.90
45850;BMP180;10739;52.198;20.908;2022-07-01T12:07:45;100057.00;;;43.90
45850;BMP180;10739;52.198;20.908;2022-07-01T12:10:15;100052.00;;;42.90
45850;BMP180;10739;52.198;20.908;2022-07-01T12:12:42;100060.00;;;42.80
45850;BMP180;10739;52.198;20.908;2022-07-01T12:15:14;100056.00;;;43.10
45850;BMP180;10739;52.198;20.908;2022-07-01T12:17:40;100051.00;;;43.10
45850;BMP180;10739;52.198;20.908;2022-07-01T12:20:07;100041.00;;;43.70
45850;BMP180;10739;52.198;20.908;2022-07-01T12:22:33;100045.00;;;44.00
45850;BMP180;10739;52.198;20.908;2022-07-01T12:25:13;100045.00;;;44.20
45850;BMP180;10739;52.198;20.908;2022-07-01T12:27:41;100044.00;;;43.90
45850;BMP180;10739;52.198;20.908;2022-07-01T12:30:11;100039.00;;;44.00
45850;BMP180;10739;52.198;20.908;2022-07-01T12:32:48;100043.00;;;44.00
45850;BMP180;10739;52.198;20.908;2022-07-01T12:35:24;100046.00;;;43.90
45850;BMP180;10739;52.198;20.908;2022-07-01T12:38:03;100039.00;;;44.60
45850;BMP180;10739;52.198;20.908;2022-07-01T12:40:33;100036.00;;;44.90
45850;BMP180;10739;52.198;20.908;2022-07-01T12:42:59;100028.00;;;44.20
45850;BMP180;10739;52.198;20.908;2022-07-01T12:45:27;100024.00;;;44.90
45850;BMP180;10739;52.198;20.908;2022-07-01T12:47:56;100020.00;;;44.90
45850;BMP180;10739;52.198;20.908;2022-07-01T12:50:28;100026.00;;;45.10
45850;BMP180;10739;52.198;20.908;2022-07-01T12:53:11;100024.00;;;44.30
45850;BMP180;10739;52.198;20.908;2022-07-01T12:55:42;100029.00;;;44.60
45850;BMP180;10739;52.198;20.908;2022-07-01T12:58:17;100019.00;;;45.10
45850;BMP180;10739;52.198;20.908;2022-07-01T13:00:47;100016.00;;;44.20
45850;BMP180;10739;52.198;20.908;2022-07-01T13:03:14;100022.00;;;43.80
45850;BMP180;10739;52.198;20.908;2022-07-01T13:05:43;100015.00;;;44.20
45850;BMP180;10739;52.198;20.908;2022-07-01T13:08:10;100026.00;;;43.90
45850;BMP180;10739;52.198;20.908;2022-07-01T13:10:37;100025.00;;;43.70
45850;BMP180;10739;52.198;20.908;2022-07-01T13:13:04;100016.00;;;44.10
45850;BMP180;10739;52.198;20.908;2022-07-01T13:15:31;100027.00;;;44.20
45850;BMP180;10739;52.198;20.908;2022-07-01T13:17:58;100023.00;;;44.60
45850;BMP180;10739;52.198;20.908;2022-07-01T13:20:24;100018.00;;;44.30
45850;BMP180;10739;52.198;20.908;2022-07-01T13:22:50;100024.00;;;44.50
45850;BMP180;10739;52.198;20.908;2022-07-01T13:25:16;100017.00;;;44.40
45850;BMP180;10739;52.198;20.908;2022-07-01T13:27:42;100019.00;;;45.00
45850;BMP180;10739;52.198;20.908;2022-07-01T13:30:10;100027.00;;;45.00
45850;BMP180;10739;52.198;20.908;2022-07-01T13:32:37;100026.00;;;45.10
45850;BMP180;10739;52.198;20.908;2022-07-01T13:35:07;100026.00;;;44.60
45850;BMP180;10739;52.198;20.908;2022-07-01T13:37:33;100029.00;;;43.80
45850;BMP180;10739;52.198;20.908;2022-07-01T13:39:59;100020.00;;;43.60
45850;BMP180;10739;52.198;20.908;2022-07-01T13:42:25;100014.00;;;44.50
45850;BMP180;10739;52.198;20.908;2022-07-01T13:44:51;100012.00;;;44.50
45850;BMP180;10739;52.198;20.908;2022-07-01T13:47:18;100013.00;;;44.40
45850;BMP180;10739;52.198;20.908;2022-07-01T13:49:44;100009.00;;;44.40
45850;BMP180;10739;52.198;20.908;2022-07-01T13:52:11;100016.00;;;44.60
45850;BMP180;10739;52.198;20.908;2022-07-01T13:54:38;100006.00;;;44.10
45850;BMP180;10739;52.198;20.908;2022-07-01T13:57:05;100014.00;;;44.60
45850;BMP180;10739;52.198;20.908;2022-07-01T13:59:31;100009.00;;;44.80
45850;BMP180;10739;52.198;20.908;2022-07-01T14:01:58;100014.00;;;44.30
45850;BMP180;10739;52.198;20.908;2022-07-01T14:04:24;100017.00;;;43.70
45850;BMP180;10739;52.198;20.908;2022-07-01T14:06:51;100012.00;;;44.00
45850;BMP180;10739;52.198;20.908;2022-07-01T14:09:17;100006.00;;;44.00
45850;BMP180;10739;52.198;20.908;2022-07-01T14:11:43;100009.00;;;43.40
45850;BMP180;10739;52.198;20.908;2022-07-01T14:14:11;100005.00;;;43.40
45850;BMP180;10739;52.198;20.908;2022-07-01T14:16:37;99997.00;;;44.00